Terminal Aerodrome Forecast
Issued by NWS

Home | Current Version | Previous Version | Text Only | Print | Product List | Glossary On
Versions: 1 2 3 4 5 6 7 8 9 10 11 12 13 14 15
000
FTUS43 KPAH 191600 AAA
TAFCGI
TAF AMD
KCGI 191600Z 1916/2012 34012G18KT P6SM SCT025 BKN040
     FM191900 36013G20KT P6SM BKN040
     FM192300 01010KT P6SM SCT040
     FM200200 VRB03KT P6SM SKC=

USA.gov is the U.S. government's official web portal to all federal, state and local government web resources and services.